createdAt,value
2022-10-31T00:01:01.867Z,99617.94
2022-10-31T00:02:03.488Z,99621.16
2022-10-31T00:03:05.071Z,99615.56
2022-10-31T00:04:07.247Z,99615.44
2022-10-31T00:05:08.915Z,99611.94
2022-10-31T00:06:10.413Z,99613.50
2022-10-31T00:07:11.926Z,99616.00
2022-10-31T00:08:13.531Z,99611.00
2022-10-31T00:09:15.093Z,99615.88
2022-10-31T00:10:16.700Z,99615.81
2022-10-31T00:11:18.209Z,99626.38
2022-10-31T00:12:19.707Z,99616.22
2022-10-31T00:14:23.715Z,99618.34
2022-10-31T00:15:25.224Z,99619.44
2022-10-31T00:16:27.635Z,99616.22
2022-10-31T00:17:29.138Z,99617.19
2022-10-31T00:18:30.966Z,99625.31
2022-10-31T00:19:32.478Z,99612.03
2022-10-31T00:20:34.563Z,99621.38
2022-10-31T00:21:36.207Z,99626.22
2022-10-31T00:22:37.698Z,99623.13
2022-10-31T00:23:39.221Z,99622.84
2022-10-31T00:24:40.796Z,99618.88
2022-10-31T00:25:42.299Z,99609.06
2022-10-31T00:26:43.807Z,99618.41
2022-10-31T00:27:45.327Z,99619.59
2022-10-31T00:28:47.198Z,99615.63
2022-10-31T00:29:48.711Z,99615.50
2022-10-31T00:30:50.222Z,99616.50
2022-10-31T00:31:53.332Z,99623.47
2022-10-31T00:32:55.158Z,99618.84
2022-10-31T00:33:56.857Z,99622.81
2022-10-31T00:34:59.917Z,99626.88
2022-10-31T00:36:02.088Z,99619.00
2022-10-31T00:37:03.610Z,99622.22
2022-10-31T00:38:05.138Z,99622.59
2022-10-31T00:39:06.648Z,99623.91
2022-10-31T00:40:08.927Z,99631.69
2022-10-31T00:41:11.710Z,99620.34
2022-10-31T00:42:16.278Z,99627.63
2022-10-31T00:43:20.261Z,99622.59
2022-10-31T00:44:21.784Z,99623.31
2022-10-31T00:45:23.309Z,99619.50
2022-10-31T00:46:24.825Z,99615.81
2022-10-31T00:47:26.343Z,99619.72
2022-10-31T00:48:28.958Z,99615.22
2022-10-31T00:49:30.494Z,99614.84
2022-10-31T00:50:32.535Z,99623.19
2022-10-31T00:51:34.826Z,99616.59
2022-10-31T00:52:36.389Z,99620.53
2022-10-31T00:53:38.034Z,99616.34
2022-10-31T00:54:40.048Z,99620.31
2022-10-31T00:55:41.551Z,99624.75
2022-10-31T00:56:43.062Z,99624.28
2022-10-31T00:57:47.930Z,99624.53
2022-10-31T00:58:49.774Z,99620.22
2022-10-31T00:59:51.330Z,99621.63
2022-10-31T01:00:54.217Z,99623.56
2022-10-31T01:01:56.073Z,99623.31
2022-10-31T01:02:57.988Z,99620.69
2022-10-31T01:03:59.756Z,99623.69
2022-10-31T01:05:01.585Z,99622.50
2022-10-31T01:06:09.231Z,99622.13
2022-10-31T01:07:10.843Z,99622.72
2022-10-31T01:08:12.355Z,99618.56
2022-10-31T01:09:13.934Z,99620.69
2022-10-31T01:10:15.662Z,99618.78
2022-10-31T01:11:21.530Z,99618.41
2022-10-31T01:12:23.090Z,99618.97
2022-10-31T01:13:25.704Z,99621.41
2022-10-31T01:14:27.233Z,99626.06
2022-10-31T01:15:32.223Z,99622.38
2022-10-31T01:16:34.022Z,99623.69
2022-10-31T01:17:35.917Z,99618.88
2022-10-31T01:18:37.549Z,99625.00
2022-10-31T01:19:39.086Z,99624.50
2022-10-31T01:20:40.592Z,99622.59
2022-10-31T01:21:42.111Z,99626.66
2022-10-31T01:22:43.794Z,99624.84
2022-10-31T01:23:45.628Z,99624.25
2022-10-31T01:24:48.547Z,99622.47
2022-10-31T01:25:50.062Z,99630.75
2022-10-31T01:26:51.587Z,99625.94
2022-10-31T01:27:53.110Z,99626.44
2022-10-31T01:28:57.147Z,99626.16
2022-10-31T01:29:58.852Z,99616.97
2022-10-31T01:31:08.323Z,99623.19
2022-10-31T01:32:09.967Z,99624.63
2022-10-31T01:33:11.486Z,99629.88
2022-10-31T01:34:17.869Z,99628.34
2022-10-31T01:35:19.401Z,99621.75
2022-10-31T01:36:32.510Z,99621.88
2022-10-31T01:37:34.149Z,99618.66
2022-10-31T01:38:35.692Z,99627.50
2022-10-31T01:39:37.362Z,99621.41
2022-10-31T01:40:38.883Z,99631.69
2022-10-31T01:41:43.979Z,99621.97
2022-10-31T01:42:45.453Z,99619.34
2022-10-31T01:44:02.062Z,99619.34
2022-10-31T01:45:04.542Z,99618.19
2022-10-31T01:46:06.243Z,99620.81
2022-10-31T01:47:20.950Z,99621.53
2022-10-31T01:48:27.987Z,99618.19
2022-10-31T01:49:38.842Z,99622.03
2022-10-31T01:50:40.666Z,99623.91
2022-10-31T01:51:48.845Z,99611.25
2022-10-31T01:52:51.973Z,99620.81
2022-10-31T01:53:58.350Z,99624.03
2022-10-31T01:55:09.990Z,99621.06
2022-10-31T01:56:13.094Z,99625.22
2022-10-31T01:57:15.873Z,99626.09
2022-10-31T01:58:24.541Z,99628.47
2022-10-31T01:59:30.190Z,99623.31
2022-10-31T02:00:32.892Z,99631.34
2022-10-31T02:01:34.812Z,99627.16
2022-10-31T02:02:36.787Z,99632.03
2022-10-31T02:03:38.498Z,99633.97
2022-10-31T02:04:41.039Z,99637.53
2022-10-31T02:05:44.239Z,99635.16
2022-10-31T02:06:56.226Z,99643.16
2022-10-31T02:08:10.058Z,99635.88
2022-10-31T02:09:13.211Z,99629.91
2022-10-31T02:10:15.695Z,99627.75
2022-10-31T02:11:17.342Z,99635.53
2022-10-31T02:12:19.503Z,99631.22
2022-10-31T02:13:23.241Z,99630.50
2022-10-31T02:14:27.513Z,99628.47
2022-10-31T02:15:29.523Z,99629.41
2022-10-31T02:16:31.082Z,99627.63
2022-10-31T02:17:34.030Z,99623.34
2022-10-31T02:18:35.609Z,99624.16
2022-10-31T02:19:37.059Z,99616.03
2022-10-31T02:20:46.907Z,99621.41
2022-10-31T02:21:57.855Z,99620.34
2022-10-31T02:23:04.915Z,99617.97
2022-10-31T02:24:31.082Z,99622.38
2022-10-31T02:25:58.658Z,99614.25
2022-10-31T02:27:19.820Z,99620.97
2022-10-31T02:28:39.774Z,99619.28
2022-10-31T02:30:02.429Z,99621.44
2022-10-31T02:31:16.056Z,99620.97
2022-10-31T02:32:20.424Z,99620.56
2022-10-31T02:34:02.274Z,99623.09
2022-10-31T02:35:18.173Z,99622.38
2022-10-31T02:36:26.394Z,99621.44
2022-10-31T02:38:06.398Z,99619.75
2022-10-31T02:39:33.925Z,99635.41
2022-10-31T02:40:53.876Z,99628.31
2022-10-31T02:42:20.502Z,99619.47
2022-10-31T02:43:45.946Z,99623.28
2022-10-31T02:45:01.310Z,99621.97
2022-10-31T02:46:02.813Z,99624.25
2022-10-31T02:47:12.363Z,99622.00
2022-10-31T02:48:20.417Z,99622.72
2022-10-31T02:49:34.404Z,99622.72
2022-10-31T02:50:40.937Z,99624.75
2022-10-31T02:51:44.634Z,99626.78
2022-10-31T02:52:50.686Z,99628.59
2022-10-31T02:53:52.318Z,99625.72
2022-10-31T02:54:54.516Z,99627.16
2022-10-31T02:56:01.112Z,99629.53
2022-10-31T02:57:07.899Z,99636.09
2022-10-31T02:58:14.683Z,99631.69
2022-10-31T02:59:17.071Z,99629.25
2022-10-31T03:00:19.879Z,99637.50
2022-10-31T03:01:42.666Z,99629.13
2022-10-31T03:02:53.321Z,99640.34
2022-10-31T03:04:03.633Z,99635.97
2022-10-31T03:05:26.541Z,99641.22
2022-10-31T03:06:57.010Z,99635.09
2022-10-31T03:08:24.582Z,99641.22
2022-10-31T03:09:35.160Z,99645.84
2022-10-31T03:10:44.142Z,99641.66
2022-10-31T03:12:08.780Z,99647.25
2022-10-31T03:13:13.858Z,99644.75
2022-10-31T03:14:25.676Z,99646.53
2022-10-31T03:15:40.394Z,99646.53
2022-10-31T03:16:51.332Z,99656.44
2022-10-31T03:18:19.082Z,99651.91
2022-10-31T03:19:36.009Z,99654.75
2022-10-31T03:20:45.952Z,99651.31
2022-10-31T03:21:55.230Z,99653.31
2022-10-31T03:22:59.712Z,99656.91
2022-10-31T03:24:02.962Z,99659.91
2022-10-31T03:25:06.567Z,99652.41
2022-10-31T03:26:10.649Z,99655.63
2022-10-31T03:27:16.205Z,99662.31
2022-10-31T03:28:23.526Z,99655.16
2022-10-31T03:29:29.941Z,99654.34
2022-10-31T03:30:36.454Z,99660.19
2022-10-31T03:31:47.243Z,99668.66
2022-10-31T03:32:53.457Z,99660.19
2022-10-31T03:34:00.766Z,99661.94
2022-10-31T03:35:09.245Z,99662.75
2022-10-31T03:36:14.531Z,99668.47
2022-10-31T03:37:20.168Z,99668.69
2022-10-31T03:38:23.346Z,99673.81
2022-10-31T03:39:25.373Z,99667.97
2022-10-31T03:40:28.591Z,99675.34
2022-10-31T03:41:36.287Z,99672.00
2022-10-31T03:42:44.240Z,99672.00
2022-10-31T03:43:53.742Z,99667.59
2022-10-31T03:45:10.486Z,99672.72
2022-10-31T03:46:12.067Z,99664.97
2022-10-31T03:47:14.034Z,99674.84
2022-10-31T03:48:19.358Z,99668.03
2022-10-31T03:49:21.046Z,99673.50
2022-10-31T03:50:28.080Z,99669.44
2022-10-31T03:51:51.153Z,99673.94
2022-10-31T03:53:07.141Z,99672.50
2022-10-31T03:54:11.594Z,99668.81
2022-10-31T03:55:19.459Z,99674.06
2022-10-31T03:56:36.113Z,99673.94
2022-10-31T03:58:36.325Z,99670.72
2022-10-31T03:59:44.293Z,99672.22
2022-10-31T04:00:47.320Z,99674.09
2022-10-31T04:01:54.585Z,99676.00
2022-10-31T04:03:05.222Z,99678.13
2022-10-31T04:04:08.963Z,99672.88
2022-10-31T04:05:12.286Z,99677.91
2022-10-31T04:06:18.117Z,99677.38
2022-10-31T04:07:24.872Z,99681.91
2022-10-31T04:08:30.521Z,99675.13
2022-10-31T04:09:35.914Z,99677.50
2022-10-31T04:10:39.614Z,99673.63
2022-10-31T04:11:49.648Z,99676.72
2022-10-31T04:13:20.932Z,99685.84
2022-10-31T04:14:33.684Z,99676.50
2022-10-31T04:15:37.927Z,99686.91
2022-10-31T04:16:43.772Z,99683.56
2022-10-31T04:17:49.492Z,99686.19
2022-10-31T04:18:53.144Z,99679.25
2022-10-31T04:19:54.758Z,99679.88
2022-10-31T04:21:05.027Z,99680.38
2022-10-31T04:22:06.935Z,99687.06
2022-10-31T04:23:25.853Z,99682.09
2022-10-31T04:24:28.463Z,99687.75
2022-10-31T04:25:30.401Z,99684.41
2022-10-31T04:26:33.127Z,99687.63
2022-10-31T04:27:34.651Z,99681.19
2022-10-31T04:28:36.195Z,99682.78
2022-10-31T04:29:37.741Z,99684.44
2022-10-31T04:30:39.360Z,99679.44
2022-10-31T04:31:40.866Z,99691.59
2022-10-31T04:32:42.461Z,99686.94
2022-10-31T04:33:44.119Z,99682.19
2022-10-31T04:34:46.462Z,99687.22
2022-10-31T04:35:48.406Z,99684.97
2022-10-31T04:36:50.224Z,99686.72
2022-10-31T04:37:52.810Z,99686.91
2022-10-31T04:38:54.758Z,99682.19
2022-10-31T04:40:12.236Z,99694.50
2022-10-31T04:41:45.438Z,99686.72
2022-10-31T04:42:49.330Z,99695.47
2022-10-31T04:43:51.034Z,99694.41
2022-10-31T04:44:52.722Z,99701.53
2022-10-31T04:45:54.306Z,99706.78
2022-10-31T04:46:55.853Z,99693.66
2022-10-31T04:47:58.252Z,99696.19
2022-10-31T04:49:00.087Z,99700.69
2022-10-31T04:50:02.932Z,99694.41
2022-10-31T04:51:04.559Z,99701.75
2022-10-31T04:52:07.137Z,99696.50
2022-10-31T04:53:08.995Z,99697.47
2022-10-31T04:54:19.634Z,99703.03
2022-10-31T04:55:47.012Z,99700.94
2022-10-31T04:56:53.417Z,99699.75
2022-10-31T04:57:58.088Z,99701.53
2022-10-31T04:59:01.507Z,99704.47
2022-10-31T05:00:11.040Z,99701.38
2022-10-31T05:01:13.060Z,99704.72
2022-10-31T05:02:15.344Z,99708.28
2022-10-31T05:03:27.249Z,99708.50
2022-10-31T05:04:28.757Z,99702.53
2022-10-31T05:05:31.888Z,99701.81
2022-10-31T05:06:35.930Z,99707.72
2022-10-31T05:07:44.997Z,99699.94
2022-10-31T05:08:46.828Z,99695.03
2022-10-31T05:09:48.457Z,99695.88
2022-10-31T05:10:49.967Z,99696.81
2022-10-31T05:11:51.489Z,99699.13
2022-10-31T05:13:11.499Z,99708.34
2022-10-31T05:14:31.283Z,99702.88
2022-10-31T05:15:51.390Z,99707.06
2022-10-31T05:17:25.152Z,99703.81
2022-10-31T05:18:45.275Z,99703.19
2022-10-31T05:20:05.550Z,99704.25
2022-10-31T05:21:35.994Z,99701.84
2022-10-31T05:22:42.359Z,99707.00
2022-10-31T05:23:47.506Z,99709.41
2022-10-31T05:24:50.284Z,99706.88
2022-10-31T05:25:51.833Z,99709.63
2022-10-31T05:26:53.373Z,99709.63
2022-10-31T05:27:56.820Z,99711.09
2022-10-31T05:28:58.514Z,99711.00
2022-10-31T05:31:06.692Z,99712.13
2022-10-31T05:32:08.202Z,99711.06
2022-10-31T05:33:44.880Z,99716.97
2022-10-31T05:35:05.406Z,99717.19
2022-10-31T05:36:26.874Z,99724.59
2022-10-31T05:37:54.527Z,99717.25
2022-10-31T05:38:56.179Z,99725.38
2022-10-31T05:40:08.293Z,99719.59
2022-10-31T05:41:10.850Z,99724.59
2022-10-31T05:42:14.060Z,99718.94
2022-10-31T05:43:15.573Z,99717.75
2022-10-31T05:44:17.343Z,99727.03
2022-10-31T05:45:44.586Z,99727.69
2022-10-31T05:47:04.131Z,99728.41
2022-10-31T05:48:25.586Z,99730.06
2022-10-31T05:49:47.346Z,99726.50
2022-10-31T05:51:07.428Z,99733.00
2022-10-31T05:52:08.969Z,99731.97
2022-10-31T05:53:20.486Z,99732.06
2022-10-31T05:54:22.163Z,99736.69
2022-10-31T05:55:23.969Z,99737.53
2022-10-31T05:56:43.442Z,99740.88
2022-10-31T05:57:44.941Z,99736.44
2022-10-31T05:58:46.453Z,99751.06
2022-10-31T05:59:53.887Z,99744.72
2022-10-31T06:00:57.490Z,99740.63
2022-10-31T06:01:59.300Z,99734.94
2022-10-31T06:03:23.577Z,99739.63
2022-10-31T06:04:29.473Z,99743.50
2022-10-31T06:05:31.851Z,99745.78
2022-10-31T06:06:33.417Z,99740.41
2022-10-31T06:07:36.253Z,99738.06
2022-10-31T06:08:38.484Z,99735.72
2022-10-31T06:09:43.214Z,99742.69
2022-10-31T06:10:45.351Z,99737.59
2022-10-31T06:11:49.180Z,99741.66
2022-10-31T06:12:59.704Z,99732.56
2022-10-31T06:14:12.158Z,99732.56
2022-10-31T06:15:28.010Z,99736.63
2022-10-31T06:16:30.198Z,99736.88
2022-10-31T06:17:37.570Z,99737.25
2022-10-31T06:19:00.320Z,99740.91
2022-10-31T06:20:02.738Z,99741.28
2022-10-31T06:21:05.962Z,99738.09
2022-10-31T06:22:07.462Z,99736.91
2022-10-31T06:23:09.018Z,99739.19
2022-10-31T06:24:10.535Z,99740.50
2022-10-31T06:25:30.486Z,99742.28
2022-10-31T06:26:32.891Z,99750.66
2022-10-31T06:27:34.423Z,99750.16
2022-10-31T06:28:42.989Z,99741.00
2022-10-31T06:29:53.031Z,99752.97
2022-10-31T06:31:04.031Z,99747.03
2022-10-31T06:32:06.264Z,99752.09
2022-10-31T06:33:13.285Z,99737.63
2022-10-31T06:34:19.091Z,99751.59
2022-10-31T06:35:20.620Z,99748.78
2022-10-31T06:36:25.479Z,99748.59
2022-10-31T06:37:28.849Z,99760.75
2022-10-31T06:38:37.199Z,99750.94
2022-10-31T06:39:42.023Z,99745.25
2022-10-31T06:40:45.632Z,99754.72
2022-10-31T06:41:55.974Z,99761.16
2022-10-31T06:43:01.970Z,99752.13
2022-10-31T06:44:08.119Z,99759.94
2022-10-31T06:45:33.562Z,99755.53
2022-10-31T06:46:58.196Z,99760.72
2022-10-31T06:48:25.743Z,99759.22
2022-10-31T06:50:02.867Z,99761.47
2022-10-31T06:51:04.639Z,99753.00
2022-10-31T06:52:07.076Z,99753.13
2022-10-31T06:54:15.836Z,99752.47
2022-10-31T06:55:17.441Z,99752.31
2022-10-31T06:56:19.407Z,99753.28
2022-10-31T06:57:25.047Z,99756.91
2022-10-31T06:58:26.604Z,99760.41
2022-10-31T06:59:31.657Z,99760.44
2022-10-31T07:00:48.663Z,99762.66
2022-10-31T07:01:50.504Z,99760.84
2022-10-31T07:03:01.602Z,99765.81
2022-10-31T07:04:03.526Z,99764.13
2022-10-31T07:05:07.774Z,99765.09
2022-10-31T07:06:09.270Z,99757.44
2022-10-31T07:07:10.809Z,99766.88
2022-10-31T07:08:14.879Z,99770.50
2022-10-31T07:09:16.658Z,99765.47
2022-10-31T07:10:18.195Z,99764.94
2022-10-31T07:11:27.122Z,99764.06
2022-10-31T07:12:30.571Z,99771.81
2022-10-31T07:13:33.918Z,99768.19
2022-10-31T07:14:39.169Z,99772.56
2022-10-31T07:15:43.094Z,99774.44
2022-10-31T07:16:44.704Z,99773.72
2022-10-31T07:17:49.498Z,99781.84
2022-10-31T07:18:51.090Z,99772.84
2022-10-31T07:19:52.635Z,99769.91
2022-10-31T07:20:54.558Z,99773.91
2022-10-31T07:21:57.817Z,99778.38
2022-10-31T07:23:02.706Z,99781.84
2022-10-31T07:24:06.087Z,99782.63
2022-10-31T07:25:33.644Z,99778.56
2022-10-31T07:26:49.307Z,99779.66
2022-10-31T07:27:51.244Z,99779.59
2022-10-31T07:28:53.998Z,99783.56
2022-10-31T07:29:58.507Z,99780.69
2022-10-31T07:31:02.187Z,99785.72
2022-10-31T07:32:03.868Z,99779.84
2022-10-31T07:33:07.111Z,99782.41
2022-10-31T07:34:28.864Z,99784.97
2022-10-31T07:35:53.051Z,99786.78
2022-10-31T07:36:57.863Z,99786.53
2022-10-31T07:38:08.514Z,99776.41
2022-10-31T07:39:10.030Z,99774.75
2022-10-31T07:40:12.423Z,99785.09
2022-10-31T07:41:14.344Z,99780.22
2022-10-31T07:42:18.903Z,99781.44
2022-10-31T07:43:20.966Z,99779.56
2022-10-31T07:44:40.700Z,99782.28
2022-10-31T07:45:57.302Z,99777.28
2022-10-31T07:47:21.726Z,99779.81
2022-10-31T07:48:42.073Z,99784.16
2022-10-31T07:50:02.038Z,99775.84
2022-10-31T07:51:22.288Z,99784.34
2022-10-31T07:52:38.685Z,99785.81
2022-10-31T07:54:12.515Z,99783.81
2022-10-31T07:55:14.965Z,99784.97
2022-10-31T07:56:21.881Z,99779.88
2022-10-31T07:57:25.164Z,99781.63
2022-10-31T07:58:27.120Z,99779.66
2022-10-31T07:59:28.624Z,99783.31
2022-10-31T08:00:31.517Z,99782.91
2022-10-31T08:01:33.214Z,99780.41
2022-10-31T08:03:10.464Z,99788.50
2022-10-31T08:04:34.541Z,99780.47
2022-10-31T08:05:54.380Z,99786.47
2022-10-31T08:07:23.869Z,99785.66
2022-10-31T08:08:33.488Z,99789.63
2022-10-31T08:09:37.862Z,99785.50
2022-10-31T08:10:50.034Z,99787.63
2022-10-31T08:11:51.554Z,99792.22
2022-10-31T08:13:07.566Z,99789.72
2022-10-31T08:14:09.694Z,99785.84
2022-10-31T08:15:11.264Z,99784.09
2022-10-31T08:16:12.826Z,99783.47
2022-10-31T08:17:24.342Z,99787.97
2022-10-31T08:18:31.457Z,99788.25
2022-10-31T08:19:33.675Z,99791.81
2022-10-31T08:20:35.932Z,99787.31
2022-10-31T08:21:37.771Z,99780.78
2022-10-31T08:22:43.764Z,99785.41
2022-10-31T08:23:46.218Z,99784.56
2022-10-31T08:25:40.671Z,99794.41
2022-10-31T08:26:42.246Z,99784.41
2022-10-31T08:27:50.070Z,99791.91
2022-10-31T08:28:52.773Z,99791.16
2022-10-31T08:29:55.943Z,99787.31
2022-10-31T08:30:59.492Z,99788.50
2022-10-31T08:32:36.051Z,99791.78
2022-10-31T08:33:56.087Z,99793.28
2022-10-31T08:35:15.783Z,99794.06
2022-10-31T08:36:36.091Z,99792.59
2022-10-31T08:37:45.336Z,99790.72
2022-10-31T08:38:49.868Z,99786.94
2022-10-31T08:39:52.322Z,99785.09
2022-10-31T08:40:55.686Z,99784.72
2022-10-31T08:41:57.343Z,99791.94
2022-10-31T08:43:20.237Z,99791.94
2022-10-31T08:44:23.336Z,99783.31
2022-10-31T08:45:25.290Z,99789.84
2022-10-31T08:46:26.870Z,99780.00
2022-10-31T08:47:28.733Z,99781.19
2022-10-31T08:48:31.231Z,99791.31
2022-10-31T08:49:32.743Z,99786.59
2022-10-31T08:50:36.112Z,99788.56
2022-10-31T08:51:37.646Z,99784.06
2022-10-31T08:53:03.481Z,99784.81
2022-10-31T08:54:01.997Z,99781.97
2022-10-31T08:55:26.649Z,99779.97
2022-10-31T08:56:37.433Z,99779.50
2022-10-31T08:57:46.971Z,99779.94
2022-10-31T08:58:48.702Z,99777.94
2022-10-31T08:59:50.415Z,99783.63
2022-10-31T09:00:55.573Z,99778.31
2022-10-31T09:01:57.282Z,99779.59
2022-10-31T09:03:01.902Z,99778.47
2022-10-31T09:04:05.590Z,99786.59
2022-10-31T09:05:07.619Z,99779.06
2022-10-31T09:06:09.622Z,99784.03
2022-10-31T09:07:27.375Z,99784.72
2022-10-31T09:08:33.546Z,99780.59
2022-10-31T09:09:36.348Z,99783.44
2022-10-31T09:10:38.964Z,99789.41
2022-10-31T09:11:40.475Z,99786.81
2022-10-31T09:13:02.665Z,99784.28
2022-10-31T09:14:33.465Z,99788.31
2022-10-31T09:15:54.442Z,99785.16
2022-10-31T09:16:59.113Z,99785.81
2022-10-31T09:18:15.620Z,99789.28
2022-10-31T09:19:25.417Z,99785.44
2022-10-31T09:20:27.724Z,99786.47
2022-10-31T09:21:29.908Z,99783.16
2022-10-31T09:22:33.665Z,99788.47
2022-10-31T09:23:35.322Z,99790.47
2022-10-31T09:24:36.931Z,99789.16
2022-10-31T09:25:39.494Z,99791.19
2022-10-31T09:26:59.646Z,99785.41
2022-10-31T09:28:04.414Z,99784.41
2022-10-31T09:29:06.210Z,99784.44
2022-10-31T09:30:08.341Z,99788.28
2022-10-31T09:31:10.104Z,99793.78
2022-10-31T09:32:31.887Z,99784.63
2022-10-31T09:33:33.459Z,99783.13
2022-10-31T09:34:54.917Z,99793.13
2022-10-31T09:35:58.892Z,99789.78
2022-10-31T09:37:00.435Z,99786.84
2022-10-31T09:38:06.947Z,99782.50
2022-10-31T09:39:08.506Z,99785.97
2022-10-31T09:40:11.852Z,99784.47
2022-10-31T09:41:44.808Z,99780.03
2022-10-31T09:43:01.291Z,99789.66
2022-10-31T09:44:18.503Z,99784.97
2022-10-31T09:45:42.513Z,99787.34
2022-10-31T09:47:03.770Z,99786.50
2022-10-31T09:48:30.533Z,99791.00
2022-10-31T09:50:20.252Z,99786.66
2022-10-31T09:51:51.921Z,99786.88
2022-10-31T09:53:35.002Z,99781.84
2022-10-31T09:54:39.432Z,99788.19
2022-10-31T09:55:48.117Z,99784.16
2022-10-31T09:56:50.362Z,99780.50
2022-10-31T09:57:52.088Z,99780.19
2022-10-31T09:58:58.985Z,99777.88
2022-10-31T10:00:01.947Z,99780.69
2022-10-31T10:01:05.119Z,99781.84
2022-10-31T10:02:37.881Z,99776.38
2022-10-31T10:03:55.023Z,99782.84
2022-10-31T10:05:28.307Z,99785.16
2022-10-31T10:06:36.031Z,99785.97
2022-10-31T10:08:04.427Z,99774.16
2022-10-31T10:09:27.729Z,99783.16
2022-10-31T10:11:16.414Z,99784.81
2022-10-31T10:12:50.902Z,99774.66
2022-10-31T10:14:07.386Z,99777.47
2022-10-31T10:15:34.607Z,99769.63
2022-10-31T10:17:12.615Z,99768.13
2022-10-31T10:18:30.102Z,99767.63
2022-10-31T10:19:55.430Z,99768.63
2022-10-31T10:21:11.969Z,99764.81
2022-10-31T10:22:23.705Z,99773.81
2022-10-31T10:23:37.272Z,99766.78
2022-10-31T10:25:03.158Z,99775.09
2022-10-31T10:26:13.730Z,99770.91
2022-10-31T10:27:50.113Z,99769.03
2022-10-31T10:29:24.373Z,99763.00
2022-10-31T10:31:02.529Z,99772.81
2022-10-31T10:32:30.753Z,99766.28
2022-10-31T10:33:37.687Z,99765.63
2022-10-31T10:34:47.678Z,99763.94
2022-10-31T10:36:11.715Z,99769.06
2022-10-31T10:37:33.743Z,99758.91
2022-10-31T10:38:35.101Z,99765.72
2022-10-31T10:39:41.875Z,99763.53
2022-10-31T10:40:43.733Z,99763.22
2022-10-31T10:41:49.357Z,99758.72
2022-10-31T10:43:00.041Z,99762.22
2022-10-31T10:44:02.169Z,99759.03
2022-10-31T10:45:18.641Z,99755.66
2022-10-31T10:46:22.456Z,99755.00
2022-10-31T10:47:27.219Z,99758.81
2022-10-31T10:48:42.443Z,99753.31
2022-10-31T10:49:51.143Z,99754.59
2022-10-31T10:50:53.481Z,99754.25
2022-10-31T10:52:35.229Z,99749.03
2022-10-31T10:53:48.295Z,99759.53
2022-10-31T10:55:06.851Z,99753.03
2022-10-31T10:56:17.625Z,99746.66
2022-10-31T10:57:37.843Z,99749.16
2022-10-31T10:58:41.213Z,99754.31
2022-10-31T10:59:42.724Z,99747.16
2022-10-31T11:00:48.276Z,99737.94
2022-10-31T11:01:51.794Z,99742.94
2022-10-31T11:02:53.670Z,99738.91
2022-10-31T11:03:55.210Z,99738.38
2022-10-31T11:04:59.366Z,99739.47
2022-10-31T11:06:00.969Z,99737.09
2022-10-31T11:07:08.150Z,99745.09
2022-10-31T11:08:09.862Z,99737.19
2022-10-31T11:09:11.449Z,99740.16
2022-10-31T11:10:14.775Z,99739.34
2022-10-31T11:11:19.074Z,99741.63
2022-10-31T11:12:25.316Z,99741.47
2022-10-31T11:13:27.651Z,99738.78
2022-10-31T11:14:29.318Z,99741.59
2022-10-31T11:15:37.755Z,99741.59
2022-10-31T11:16:42.767Z,99736.91
2022-10-31T11:17:50.622Z,99734.06
2022-10-31T11:18:52.323Z,99737.00
2022-10-31T11:20:06.438Z,99736.34
2022-10-31T11:21:29.208Z,99733.22
2022-10-31T11:22:31.380Z,99732.03
2022-10-31T11:23:34.027Z,99735.72
2022-10-31T11:24:42.827Z,99734.88
2022-10-31T11:26:05.223Z,99731.47
2022-10-31T11:27:16.651Z,99730.63
2022-10-31T11:28:18.443Z,99733.69
2022-10-31T11:29:25.929Z,99726.13
2022-10-31T11:30:28.526Z,99728.06
2022-10-31T11:31:30.858Z,99728.50
2022-10-31T11:32:32.638Z,99723.25
2022-10-31T11:33:38.352Z,99723.91
2022-10-31T11:34:46.164Z,99730.38
2022-10-31T11:35:51.021Z,99724.56
2022-10-31T11:36:58.006Z,99726.59
2022-10-31T11:38:01.324Z,99724.78
2022-10-31T11:39:05.690Z,99721.75
2022-10-31T11:40:07.927Z,99719.94
2022-10-31T11:41:11.945Z,99726.25
2022-10-31T11:42:14.330Z,99721.13
2022-10-31T11:43:19.242Z,99718.25
2022-10-31T11:44:27.904Z,99723.41
2022-10-31T11:45:34.377Z,99728.75
2022-10-31T11:46:45.248Z,99720.75
2022-10-31T11:47:56.711Z,99717.59
2022-10-31T11:49:02.103Z,99719.25
2022-10-31T11:50:12.488Z,99716.31
2022-10-31T11:51:21.002Z,99714.50
2022-10-31T11:52:32.594Z,99720.47
2022-10-31T11:53:34.845Z,99716.31
2022-10-31T11:54:46.873Z,99717.69
2022-10-31T11:56:00.248Z,99707.66
2022-10-31T11:57:01.761Z,99711.63
2022-10-31T11:58:04.276Z,99708.13
2022-10-31T11:59:18.038Z,99708.19
2022-10-31T12:01:31.783Z,99713.00
2022-10-31T12:02:33.394Z,99708.13
2022-10-31T12:03:53.792Z,99710.13
2022-10-31T12:05:03.534Z,99708.69
2022-10-31T12:06:23.351Z,99713.81
2022-10-31T12:07:25.280Z,99712.34
2022-10-31T12:08:31.323Z,99705.38
2022-10-31T12:09:37.652Z,99711.03
2022-10-31T12:11:00.536Z,99707.84
2022-10-31T12:12:23.451Z,99706.19
2022-10-31T12:13:39.627Z,99709.50
2022-10-31T12:14:58.389Z,99708.84
2022-10-31T12:16:18.246Z,99705.91
2022-10-31T12:17:29.197Z,99700.75
2022-10-31T12:18:39.516Z,99703.56
2022-10-31T12:20:19.917Z,99710.78
2022-10-31T12:22:01.965Z,99711.78
2022-10-31T12:23:25.264Z,99701.56
2022-10-31T12:24:45.195Z,99707.72
2022-10-31T12:25:59.747Z,99708.56
2022-10-31T12:27:35.001Z,99701.38
2022-10-31T12:28:55.236Z,99698.44
2022-10-31T12:30:18.057Z,99702.22
2022-10-31T12:31:44.708Z,99700.56
2022-10-31T12:33:11.014Z,99696.25
2022-10-31T12:34:42.607Z,99705.06
2022-10-31T12:36:24.039Z,99702.03
2022-10-31T12:37:31.554Z,99697.91
2022-10-31T12:39:12.264Z,99699.34
2022-10-31T12:40:51.306Z,99698.53
2022-10-31T12:42:06.834Z,99693.25
2022-10-31T12:43:14.193Z,99694.75
2022-10-31T12:44:43.631Z,99702.38
2022-10-31T12:45:55.829Z,99694.38
2022-10-31T12:47:08.440Z,99687.75
2022-10-31T12:48:34.411Z,99694.13
2022-10-31T12:49:50.887Z,99688.78
2022-10-31T12:51:10.522Z,99691.78
2022-10-31T12:52:34.974Z,99691.97
2022-10-31T12:53:43.179Z,99698.97
2022-10-31T12:55:12.325Z,99689.97
2022-10-31T12:56:16.885Z,99692.78
2022-10-31T12:57:41.024Z,99687.66
2022-10-31T12:58:50.480Z,99684.16
2022-10-31T13:00:01.998Z,99683.34
2022-10-31T13:01:16.843Z,99683.66
2022-10-31T13:02:32.016Z,99682.84
2022-10-31T13:04:06.146Z,99681.84
2022-10-31T13:05:25.626Z,99677.69
2022-10-31T13:06:45.073Z,99685.22
2022-10-31T13:08:02.781Z,99682.09
2022-10-31T13:09:11.423Z,99684.78
2022-10-31T13:10:35.182Z,99687.88
2022-10-31T13:11:43.471Z,99684.25
2022-10-31T13:12:49.138Z,99684.78
2022-10-31T13:14:00.948Z,99687.59
2022-10-31T13:15:23.113Z,99690.94
2022-10-31T13:16:31.651Z,99687.44
2022-10-31T13:17:42.403Z,99689.25
2022-10-31T13:18:53.643Z,99692.59
2022-10-31T13:20:06.459Z,99684.78
2022-10-31T13:21:27.634Z,99683.94
2022-10-31T13:22:33.417Z,99675.13
2022-10-31T13:23:54.757Z,99683.44
2022-10-31T13:25:21.245Z,99691.28
2022-10-31T13:26:36.310Z,99679.13
2022-10-31T13:27:46.121Z,99679.03
2022-10-31T13:29:00.492Z,99681.88
2022-10-31T13:30:15.172Z,99684.56
2022-10-31T13:31:16.790Z,99678.22
2022-10-31T13:32:18.348Z,99684.56
2022-10-31T13:33:34.133Z,99673.56
2022-10-31T13:34:39.814Z,99680.41
2022-10-31T13:36:14.272Z,99682.91
2022-10-31T13:37:24.878Z,99683.06
2022-10-31T13:38:32.405Z,99682.41
2022-10-31T13:40:04.461Z,99676.78